Time;durP1;ratioP1;P1;durP2;ratioP2;P2;SDS_P1;SDS_P2;PMS_P1;PMS_P2;Temp;Humidity;BMP_temperature;BMP_pressure;BME280_temperature;BME280_humidity;BME280_pressure;Samples;Min_cycle;Max_cycle;Signal;HPM_P1;HPM_P2
2023/06/28 00:01:37;;;;;;;6.00;3.70;;;15.00;99.90;;;;;;5033239;28;20065;-61
2023/06/28 00:04:22;;;;;;;7.60;4.15;;;15.00;99.90;;;;;;5036923;28;20033;-50
2023/06/28 00:07:09;;;;;;;9.45;3.58;;;15.20;99.90;;;;;;5033952;28;20040;-51
2023/06/28 00:09:54;;;;;;;11.40;3.92;;;15.30;99.90;;;;;;5032071;28;20508;-50
2023/06/28 00:12:40;;;;;;;9.73;4.55;;;15.50;99.90;;;;;;5030470;28;20024;-54
2023/06/28 00:15:26;;;;;;;3.83;3.47;;;15.60;99.90;;;;;;5030763;28;20072;-54
2023/06/28 00:18:12;;;;;;;5.95;4.20;;;15.50;99.90;;;;;;5033747;28;20032;-50
2023/06/28 00:20:58;;;;;;;7.80;4.10;;;15.50;99.90;;;;;;5031391;28;20044;-51
2023/06/28 00:23:44;;;;;;;7.75;4.32;;;15.50;99.90;;;;;;5032951;28;20498;-52
2023/06/28 00:26:30;;;;;;;8.85;4.65;;;15.40;99.90;;;;;;5059495;28;20449;-53
2023/06/28 00:29:16;;;;;;;6.75;3.90;;;15.20;99.90;;;;;;5033341;28;20364;-55
2023/06/28 00:32:02;;;;;;;8.18;4.28;;;15.20;99.90;;;;;;5029948;28;20324;-52
2023/06/28 00:34:48;;;;;;;5.72;3.70;;;15.20;99.90;;;;;;5029088;28;20025;-52
2023/06/28 00:37:34;;;;;;;7.20;4.18;;;15.20;99.90;;;;;;5038118;28;20498;-51
2023/06/28 00:40:20;;;;;;;9.63;4.38;;;15.20;99.90;;;;;;5046635;28;20077;-51
2023/06/28 00:43:07;;;;;;;7.57;4.07;;;15.10;99.90;;;;;;5039956;28;20410;-55
2023/06/28 00:45:53;;;;;;;6.35;3.88;;;15.10;99.90;;;;;;5034229;28;20079;-55
2023/06/28 00:48:40;;;;;;;9.18;4.57;;;15.00;99.90;;;;;;5029764;28;20539;-51
2023/06/28 00:51:28;;;;;;;6.60;4.13;;;15.10;99.90;;;;;;5032741;28;20032;-50
2023/06/28 00:54:15;;;;;;;7.25;4.60;;;15.00;99.90;;;;;;5034564;28;20025;-50
2023/06/28 00:57:01;;;;;;;10.35;5.43;;;15.00;99.90;;;;;;5033732;28;20018;-53
2023/06/28 00:59:49;;;;;;;7.50;4.60;;;15.00;99.90;;;;;;5035085;28;20025;-53
2023/06/28 01:02:35;;;;;;;11.48;5.07;;;15.00;99.90;;;;;;5033230;28;20025;-53
2023/06/28 01:05:22;;;;;;;7.60;4.22;;;15.00;99.90;;;;;;5031093;28;20079;-54
2023/06/28 01:08:08;;;;;;;7.32;4.47;;;14.90;99.90;;;;;;5030727;28;20034;-54
2023/06/28 01:10:54;;;;;;;7.43;4.53;;;14.90;99.90;;;;;;5033522;28;20064;-53
2023/06/28 01:13:41;;;;;;;7.38;4.60;;;14.90;99.90;;;;;;5032105;28;20017;-52
2023/06/28 01:16:27;;;;;;;8.57;4.22;;;14.90;99.90;;;;;;5031820;28;20014;-53
2023/06/28 01:19:13;;;;;;;6.50;4.55;;;14.80;99.90;;;;;;5030879;28;20041;-52
2023/06/28 01:22:02;;;;;;;8.75;4.60;;;14.90;99.90;;;;;;5028463;28;20030;-51
2023/06/28 01:24:49;;;;;;;9.05;4.72;;;14.90;99.90;;;;;;5031057;28;20033;-54
2023/06/28 01:27:35;;;;;;;11.20;4.82;;;14.90;99.90;;;;;;5031395;28;20033;-54
2023/06/28 01:30:23;;;;;;;10.32;4.63;;;14.90;99.90;;;;;;5031115;28;20375;-54
2023/06/28 01:33:09;;;;;;;7.80;4.50;;;14.90;99.90;;;;;;5034459;28;20030;-52
2023/06/28 01:35:56;;;;;;;9.10;4.50;;;14.90;99.90;;;;;;5033473;28;20033;-56
2023/06/28 01:38:43;;;;;;;7.22;4.45;;;14.90;99.90;;;;;;5033027;28;20025;-53
2023/06/28 01:41:30;;;;;;;7.03;4.68;;;14.90;99.90;;;;;;5032664;28;20024;-54
2023/06/28 01:44:17;;;;;;;9.30;5.00;;;14.90;99.90;;;;;;5031736;28;20021;-51
2023/06/28 01:47:03;;;;;;;5.72;4.50;;;14.90;99.90;;;;;;5030989;28;20045;-53
2023/06/28 01:49:49;;;;;;;8.77;4.85;;;14.90;99.90;;;;;;5032864;28;20033;-52
2023/06/28 01:52:35;;;;;;;8.38;4.57;;;14.80;99.90;;;;;;5029748;28;20398;-53
2023/06/28 01:55:21;;;;;;;8.70;4.45;;;14.80;99.90;;;;;;5032317;28;20018;-53
2023/06/28 01:58:07;;;;;;;10.93;4.78;;;14.60;99.90;;;;;;5031480;28;20406;-53
2023/06/28 02:00:53;;;;;;;6.35;4.00;;;14.60;99.90;;;;;;5032977;28;20571;-54
2023/06/28 02:03:39;;;;;;;9.98;4.38;;;14.70;99.90;;;;;;5029828;28;20037;-51
2023/06/28 02:06:25;;;;;;;6.93;4.03;;;14.60;99.90;;;;;;5030510;28;20060;-50
2023/06/28 02:09:11;;;;;;;7.82;4.15;;;14.60;99.90;;;;;;5031999;28;20076;-50
2023/06/28 02:11:57;;;;;;;15.30;5.47;;;14.50;99.90;;;;;;5030122;28;20143;-52
2023/06/28 02:14:42;;;;;;;7.75;4.40;;;14.60;99.90;;;;;;5028188;28;20026;-50
2023/06/28 02:17:30;;;;;;;7.30;4.35;;;14.50;99.90;;;;;;5032968;28;20030;-49
2023/06/28 02:20:16;;;;;;;6.70;4.20;;;14.30;99.90;;;;;;5032605;28;20037;-50
2023/06/28 02:23:03;;;;;;;6.20;3.72;;;14.40;99.90;;;;;;5032688;28;20060;-54
2023/06/28 02:25:49;;;;;;;8.45;4.20;;;14.40;99.90;;;;;;5042035;28;20028;-50
2023/06/28 02:28:34;;;;;;;7.93;4.05;;;14.50;99.90;;;;;;5047588;28;20036;-54
2023/06/28 02:31:22;;;;;;;10.00;3.88;;;14.30;99.90;;;;;;5033417;28;20041;-54
2023/06/28 02:34:07;;;;;;;9.18;4.15;;;14.30;99.90;;;;;;5031267;28;20112;-50
2023/06/28 02:36:53;;;;;;;9.23;4.70;;;14.50;99.90;;;;;;5031371;28;20025;-53
2023/06/28 02:39:40;;;;;;;8.57;4.03;;;14.40;99.90;;;;;;5023708;28;20167;-51
2023/06/28 02:42:25;;;;;;;8.68;4.47;;;14.40;99.90;;;;;;5032593;28;20040;-51
2023/06/28 02:45:11;;;;;;;10.70;4.30;;;14.30;99.90;;;;;;5032017;28;20204;-53
2023/06/28 02:47:57;;;;;;;9.52;3.97;;;14.20;99.90;;;;;;5030512;28;20067;-51
2023/06/28 02:50:43;;;;;;;13.40;4.70;;;14.10;99.90;;;;;;5032712;28;20033;-50
2023/06/28 02:53:29;;;;;;;6.10;3.95;;;14.20;99.90;;;;;;5030785;28;20108;-52
2023/06/28 02:56:15;;;;;;;7.28;4.30;;;14.10;99.90;;;;;;5031095;28;20021;-53
2023/06/28 02:59:01;;;;;;;8.52;4.57;;;14.10;99.90;;;;;;5032106;28;20056;-50
2023/06/28 03:01:47;;;;;;;9.30;4.47;;;14.00;99.90;;;;;;5037523;28;20036;-51
2023/06/28 03:04:35;;;;;;;6.38;4.10;;;14.00;99.90;;;;;;5019420;28;20128;-54
2023/06/28 03:07:21;;;;;;;5.30;4.13;;;14.10;99.90;;;;;;5032216;28;20101;-50
2023/06/28 03:10:07;;;;;;;8.18;5.10;;;14.20;99.90;;;;;;5049198;28;20036;-54
2023/06/28 03:12:53;;;;;;;8.52;4.30;;;14.20;99.90;;;;;;5043654;28;20026;-55
2023/06/28 03:15:39;;;;;;;8.45;4.80;;;14.30;99.90;;;;;;5035066;28;20096;-51
2023/06/28 03:18:25;;;;;;;10.88;4.28;;;14.30;99.90;;;;;;5035527;28;20056;-53
2023/06/28 03:21:11;;;;;;;9.77;4.25;;;14.20;99.90;;;;;;5034745;28;20108;-53
2023/06/28 03:23:57;;;;;;;8.65;4.47;;;14.20;99.90;;;;;;5037256;28;20505;-51
2023/06/28 03:26:43;;;;;;;9.75;4.32;;;14.00;99.90;;;;;;5035846;28;20049;-50
2023/06/28 03:29:29;;;;;;;8.20;4.20;;;14.10;99.90;;;;;;5035285;28;20108;-54
2023/06/28 03:32:15;;;;;;;9.68;4.32;;;14.10;99.90;;;;;;5034927;28;20030;-52
2023/06/28 03:35:01;;;;;;;9.20;4.95;;;14.10;99.90;;;;;;5035550;28;20529;-51
2023/06/28 03:37:51;;;;;;;6.35;4.32;;;14.10;99.90;;;;;;5036405;28;20030;-55
2023/06/28 03:40:37;;;;;;;8.15;3.80;;;14.10;99.90;;;;;;5034970;28;20490;-51
2023/06/28 03:43:24;;;;;;;6.97;4.43;;;14.20;99.90;;;;;;5035156;28;20379;-50
2023/06/28 03:46:10;;;;;;;9.82;4.45;;;14.20;99.90;;;;;;5034951;28;20535;-56
2023/06/28 03:48:56;;;;;;;11.07;4.63;;;14.20;99.90;;;;;;5036196;28;20414;-50
2023/06/28 03:51:42;;;;;;;6.78;4.82;;;14.10;99.90;;;;;;5036383;28;20026;-51
2023/06/28 03:54:28;;;;;;;9.35;4.53;;;14.20;99.90;;;;;;5034524;28;20621;-51
2023/06/28 03:57:13;;;;;;;8.45;4.50;;;14.20;99.90;;;;;;5035121;28;20490;-54
2023/06/28 03:59:59;;;;;;;11.50;4.75;;;14.30;99.90;;;;;;5034665;28;20041;-56
2023/06/28 04:02:45;;;;;;;8.85;4.82;;;14.20;99.90;;;;;;5034911;28;20128;-50
2023/06/28 04:05:32;;;;;;;10.60;4.82;;;14.20;99.90;;;;;;5035368;28;20057;-53
2023/06/28 04:08:17;;;;;;;9.50;5.13;;;14.20;99.90;;;;;;5034706;28;20053;-54
2023/06/28 04:11:03;;;;;;;5.68;4.30;;;14.20;99.90;;;;;;5033917;28;20067;-55
2023/06/28 04:13:49;;;;;;;8.15;4.57;;;14.10;99.90;;;;;;5034192;28;20033;-55
2023/06/28 04:16:35;;;;;;;6.95;4.13;;;14.20;99.90;;;;;;5033430;28;20040;-55
2023/06/28 04:19:21;;;;;;;8.32;4.43;;;14.20;99.90;;;;;;5035984;28;20036;-54
2023/06/28 04:22:07;;;;;;;9.05;4.72;;;14.30;99.90;;;;;;5035769;28;20029;-55
2023/06/28 04:24:53;;;;;;;13.32;5.00;;;14.40;99.90;;;;;;5035761;28;20108;-53
2023/06/28 04:27:39;;;;;;;12.82;6.10;;;14.30;99.90;;;;;;5037087;28;20064;-53
2023/06/28 04:30:25;;;;;;;8.15;4.57;;;14.30;99.90;;;;;;5036138;28;20120;-54
2023/06/28 04:33:14;;;;;;;9.95;4.70;;;14.40;99.90;;;;;;5038076;28;20041;-52
2023/06/28 04:36:01;;;;;;;9.85;5.00;;;14.50;99.90;;;;;;5046020;28;20042;-49
2023/06/28 04:38:54;;;;;;;9.75;4.65;;;14.60;99.90;;;;;;5037411;28;20494;-50
2023/06/28 04:41:40;;;;;;;12.15;5.53;;;14.70;99.90;;;;;;5034405;28;20531;-52
2023/06/28 04:44:34;;;;;;;8.23;4.60;;;14.70;99.90;;;;;;5035434;28;20053;-53
2023/06/28 04:47:20;;;;;;;10.38;5.43;;;14.50;99.90;;;;;;5037643;28;20022;-51
2023/06/28 04:50:06;;;;;;;8.00;4.95;;;14.50;99.90;;;;;;5035418;28;20108;-51
2023/06/28 04:52:52;;;;;;;11.02;5.30;;;14.60;99.90;;;;;;5036290;28;20037;-54
2023/06/28 04:55:38;;;;;;;12.32;4.80;;;14.60;99.90;;;;;;5048536;28;20029;-55
2023/06/28 04:58:25;;;;;;;7.75;4.45;;;14.60;99.90;;;;;;5041482;28;20040;-55
2023/06/28 05:01:11;;;;;;;9.85;5.05;;;14.70;99.90;;;;;;5033970;28;20116;-49
2023/06/28 05:03:57;;;;;;;10.82;4.43;;;14.90;99.90;;;;;;5033520;28;20037;-54
2023/06/28 05:06:43;;;;;;;6.90;4.60;;;14.90;99.90;;;;;;5032691;28;20030;-49
2023/06/28 05:09:33;;;;;;;8.57;5.40;;;14.90;99.90;;;;;;5036130;28;20092;-53
2023/06/28 05:12:19;;;;;;;8.95;4.75;;;14.90;99.90;;;;;;5036151;28;20057;-53
2023/06/28 05:15:05;;;;;;;11.00;5.40;;;15.00;99.90;;;;;;5034356;28;20036;-53
2023/06/28 05:17:51;;;;;;;14.65;5.10;;;15.20;99.90;;;;;;5034154;28;20387;-52
2023/06/28 05:20:37;;;;;;;13.93;5.82;;;15.10;99.90;;;;;;5034492;28;20033;-49
2023/06/28 05:23:24;;;;;;;12.77;5.78;;;15.00;99.90;;;;;;5035322;28;20033;-52
2023/06/28 05:26:10;;;;;;;9.30;4.93;;;15.10;99.90;;;;;;5033659;28;20034;-54
2023/06/28 05:28:55;;;;;;;8.63;4.75;;;15.20;99.90;;;;;;5033960;28;20026;-54
2023/06/28 05:31:42;;;;;;;10.52;4.95;;;15.40;99.90;;;;;;5030005;28;20036;-52
2023/06/28 05:34:28;;;;;;;9.48;5.07;;;15.40;99.90;;;;;;5039434;28;20067;-55
2023/06/28 05:37:14;;;;;;;7.30;4.68;;;15.50;99.90;;;;;;5041488;28;20041;-55
2023/06/28 05:40:00;;;;;;;10.40;4.35;;;15.60;99.90;;;;;;5038535;28;20026;-55
2023/06/28 05:42:46;;;;;;;8.25;4.68;;;15.70;99.90;;;;;;5035515;28;20061;-53
2023/06/28 05:45:32;;;;;;;11.40;5.50;;;15.80;99.90;;;;;;5033146;28;20033;-55
2023/06/28 05:48:17;;;;;;;10.80;4.88;;;15.90;99.90;;;;;;5033490;28;20421;-53
2023/06/28 05:51:09;;;;;;;12.45;5.25;;;16.10;99.90;;;;;;5034183;28;20029;-53
2023/06/28 05:53:55;;;;;;;10.15;4.97;;;15.90;99.90;;;;;;5034677;28;20113;-54
2023/06/28 05:56:42;;;;;;;14.00;5.28;;;16.00;99.90;;;;;;5033418;28;20033;-52
2023/06/28 05:59:30;;;;;;;10.63;4.88;;;15.90;99.90;;;;;;5034191;28;20067;-54
2023/06/28 06:02:16;;;;;;;8.63;4.60;;;16.00;99.90;;;;;;5032003;28;20430;-54
2023/06/28 06:05:03;;;;;;;12.23;4.65;;;16.10;99.90;;;;;;5033006;28;20033;-57
2023/06/28 06:07:49;;;;;;;13.13;5.13;;;16.20;99.90;;;;;;5032923;28;20033;-50
2023/06/28 06:10:35;;;;;;;7.57;4.63;;;16.20;99.90;;;;;;5030738;28;20033;-53
2023/06/28 06:13:21;;;;;;;10.18;5.38;;;16.20;99.90;;;;;;5033840;28;20148;-54
2023/06/28 06:16:07;;;;;;;11.45;4.65;;;16.20;99.90;;;;;;5032529;28;20057;-53
2023/06/28 06:18:53;;;;;;;14.55;5.45;;;16.30;99.90;;;;;;5032860;28;20022;-54
2023/06/28 06:21:38;;;;;;;9.95;5.55;;;16.20;99.90;;;;;;5033181;28;20033;-52
2023/06/28 06:24:24;;;;;;;11.13;5.40;;;16.20;99.90;;;;;;5034079;28;20022;-50
2023/06/28 06:27:10;;;;;;;11.52;5.10;;;16.30;99.90;;;;;;5034008;28;20116;-50
2023/06/28 06:29:56;;;;;;;10.02;5.35;;;16.60;99.90;;;;;;5033118;28;20089;-50
2023/06/28 06:32:42;;;;;;;7.97;4.85;;;16.60;99.90;;;;;;5013202;28;20041;-56
2023/06/28 06:35:28;;;;;;;11.45;5.22;;;16.80;99.90;;;;;;5015231;28;20063;-54
2023/06/28 06:38:14;;;;;;;8.52;4.88;;;16.90;99.90;;;;;;5023346;28;20376;-51
2023/06/28 06:41:00;;;;;;;12.65;5.65;;;17.10;99.90;;;;;;5032245;28;20034;-52
2023/06/28 06:43:46;;;;;;;9.63;4.78;;;17.30;99.90;;;;;;5032049;28;20034;-55
2023/06/28 06:46:32;;;;;;;11.23;5.30;;;17.10;99.90;;;;;;5031744;28;20112;-52
2023/06/28 06:49:20;;;;;;;8.98;4.60;;;16.80;99.90;;;;;;5032681;28;20036;-52
2023/06/28 06:52:06;;;;;;;11.95;5.22;;;16.60;99.90;;;;;;5033066;28;20033;-52
2023/06/28 06:54:52;;;;;;;10.00;4.40;;;16.60;99.90;;;;;;5033069;28;20085;-54
2023/06/28 06:57:38;;;;;;;9.07;4.55;;;16.70;99.90;;;;;;5029782;28;20091;-53
2023/06/28 07:00:24;;;;;;;7.47;4.40;;;17.00;99.90;;;;;;5032849;28;20033;-56
2023/06/28 07:03:10;;;;;;;11.73;4.75;;;17.10;99.90;;;;;;5031875;28;20037;-53
2023/06/28 07:05:56;;;;;;;9.20;4.10;;;17.20;99.90;;;;;;5030482;28;20116;-54
2023/06/28 07:08:42;;;;;;;14.40;4.25;;;17.20;99.90;;;;;;5033605;28;20465;-56
2023/06/28 07:11:28;;;;;;;11.32;5.22;;;17.10;99.90;;;;;;5013046;28;20506;-54
2023/06/28 07:14:14;;;;;;;8.25;4.10;;;17.00;99.90;;;;;;5013889;28;20033;-56
2023/06/28 07:16:59;;;;;;;16.02;4.85;;;17.10;99.90;;;;;;5031768;28;20089;-56
2023/06/28 07:19:45;;;;;;;12.02;4.85;;;17.10;99.90;;;;;;5031095;28;20057;-52
2023/06/28 07:22:31;;;;;;;8.65;3.83;;;17.20;99.90;;;;;;5011933;28;20029;-54
2023/06/28 07:25:18;;;;;;;8.90;3.88;;;17.30;99.90;;;;;;5015550;28;20080;-55
2023/06/28 07:28:04;;;;;;;8.93;3.58;;;17.30;99.90;;;;;;5030916;28;20037;-56
2023/06/28 07:30:53;;;;;;;7.20;3.53;;;17.50;99.90;;;;;;5032347;28;20112;-56
2023/06/28 07:33:42;;;;;;;11.13;4.22;;;17.60;99.90;;;;;;5032010;28;20025;-53
2023/06/28 07:36:28;;;;;;;6.95;3.35;;;17.80;99.90;;;;;;5030939;28;20148;-53
2023/06/28 07:39:14;;;;;;;7.97;3.40;;;17.80;99.90;;;;;;5031915;28;20030;-51
2023/06/28 07:42:00;;;;;;;10.13;3.53;;;17.80;99.90;;;;;;5031640;28;20141;-51
2023/06/28 07:44:46;;;;;;;5.32;3.22;;;17.70;99.90;;;;;;5033163;28;20513;-51
2023/06/28 07:47:32;;;;;;;5.93;3.05;;;17.50;99.50;;;;;;5029802;28;20156;-54
2023/06/28 07:50:20;;;;;;;10.00;3.75;;;17.70;99.90;;;;;;5034477;28;20513;-55
2023/06/28 07:53:06;;;;;;;11.95;4.15;;;17.70;99.90;;;;;;5042769;28;20037;-56
2023/06/28 07:55:52;;;;;;;6.68;2.97;;;17.90;99.90;;;;;;5038584;28;20036;-54
2023/06/28 07:58:38;;;;;;;10.32;4.40;;;18.10;99.40;;;;;;5012098;28;20530;-55
2023/06/28 08:01:24;;;;;;;6.50;3.60;;;17.80;99.70;;;;;;5021089;28;20506;-54
2023/06/28 08:04:10;;;;;;;7.75;3.35;;;17.70;99.00;;;;;;5036355;28;20033;-53
2023/06/28 08:06:56;;;;;;;6.55;3.28;;;17.80;99.00;;;;;;5035625;28;20041;-52
2023/06/28 08:09:42;;;;;;;8.85;3.30;;;18.20;98.60;;;;;;5035652;28;20041;-54
2023/06/28 08:12:28;;;;;;;6.38;3.17;;;18.40;98.60;;;;;;5022279;28;20032;-50
2023/06/28 08:15:14;;;;;;;10.55;3.03;;;18.40;97.40;;;;;;5031614;28;20025;-52
2023/06/28 08:18:02;;;;;;;6.38;3.22;;;18.40;98.00;;;;;;5031973;28;20014;-54
2023/06/28 08:20:48;;;;;;;5.75;3.55;;;18.70;97.90;;;;;;5033915;28;20033;-53
2023/06/28 08:23:34;;;;;;;5.25;2.92;;;18.70;96.90;;;;;;5032554;28;20033;-52
2023/06/28 08:26:20;;;;;;;8.18;3.75;;;18.50;97.10;;;;;;5033147;28;20112;-54
2023/06/28 08:29:06;;;;;;;9.75;4.05;;;18.40;97.30;;;;;;5033498;28;20589;-50
2023/06/28 08:31:52;;;;;;;7.60;3.08;;;18.70;97.40;;;;;;5033795;28;20025;-52
2023/06/28 08:34:38;;;;;;;9.00;3.00;;;18.70;96.50;;;;;;5033609;28;20622;-51
2023/06/28 08:37:24;;;;;;;8.70;3.63;;;18.70;96.80;;;;;;5034402;28;20026;-53
2023/06/28 08:40:11;;;;;;;5.13;2.97;;;18.70;95.60;;;;;;5034090;28;20029;-54
2023/06/28 08:43:01;;;;;;;6.50;2.83;;;18.90;95.50;;;;;;5036187;28;20033;-55
2023/06/28 08:45:47;;;;;;;4.55;2.88;;;18.90;95.30;;;;;;5043551;28;20052;-54
2023/06/28 08:48:34;;;;;;;6.63;3.10;;;19.00;95.20;;;;;;5035163;28;20025;-51
2023/06/28 08:51:20;;;;;;;6.22;3.47;;;19.00;94.80;;;;;;5034421;28;20093;-50
2023/06/28 08:54:09;;;;;;;7.70;2.90;;;19.20;94.40;;;;;;5033838;28;20044;-52
2023/06/28 08:56:58;;;;;;;9.07;3.00;;;19.30;94.40;;;;;;5034242;28;20117;-50
2023/06/28 08:59:44;;;;;;;8.80;3.65;;;19.00;94.80;;;;;;5034647;28;20033;-53
2023/06/28 09:02:33;;;;;;;7.55;3.67;;;19.10;95.10;;;;;;5029347;28;20033;-53
2023/06/28 09:05:19;;;;;;;4.60;2.70;;;19.30;94.60;;;;;;5034617;28;20030;-51
2023/06/28 09:08:06;;;;;;;8.13;2.75;;;19.40;93.90;;;;;;5032110;28;20390;-55
2023/06/28 09:10:52;;;;;;;5.15;3.10;;;19.40;92.90;;;;;;5028948;28;20037;-52
2023/06/28 09:13:38;;;;;;;4.18;2.80;;;19.20;93.00;;;;;;5033954;28;20026;-54
2023/06/28 09:16:25;;;;;;;5.22;2.80;;;19.30;93.10;;;;;;5036964;28;20461;-51
2023/06/28 09:19:11;;;;;;;5.07;2.80;;;19.50;92.90;;;;;;5034493;28;20072;-50
2023/06/28 09:22:04;;;;;;;5.25;3.10;;;19.70;92.80;;;;;;5033434;28;20033;-52
2023/06/28 09:24:50;;;;;;;5.13;3.00;;;19.70;92.20;;;;;;5034392;28;20209;-50
2023/06/28 09:27:36;;;;;;;5.57;2.92;;;20.00;92.10;;;;;;5035114;28;20175;-51
2023/06/28 09:30:22;;;;;;;7.80;3.25;;;20.30;92.20;;;;;;5042959;28;20029;-55
2023/06/28 09:33:08;;;;;;;6.93;2.80;;;20.40;91.90;;;;;;5032533;28;20490;-51
2023/06/28 09:35:55;;;;;;;4.82;2.83;;;20.30;91.10;;;;;;5033775;28;20108;-51
2023/06/28 09:38:44;;;;;;;11.57;2.85;;;20.20;91.80;;;;;;5031346;28;20021;-51
2023/06/28 09:41:38;;;;;;;5.13;3.17;;;20.00;91.10;;;;;;5033507;28;20477;-52
2023/06/28 09:44:29;;;;;;;5.60;3.03;;;20.10;91.20;;;;;;5036791;28;20044;-53
2023/06/28 09:47:15;;;;;;;5.35;2.75;;;20.10;91.50;;;;;;5036224;28;20044;-53
2023/06/28 09:50:02;;;;;;;5.13;3.03;;;20.10;91.20;;;;;;5034555;28;20029;-54
2023/06/28 09:52:48;;;;;;;5.55;3.03;;;20.10;91.20;;;;;;5032609;28;20367;-49
2023/06/28 09:55:34;;;;;;;5.88;2.95;;;20.30;90.30;;;;;;5032506;28;20060;-51
2023/06/28 09:58:23;;;;;;;5.43;3.13;;;20.20;90.20;;;;;;5031471;28;20033;-50
2023/06/28 10:01:09;;;;;;;6.38;3.10;;;20.50;90.10;;;;;;5034119;28;20116;-49
2023/06/28 10:03:56;;;;;;;6.32;3.05;;;20.50;90.30;;;;;;5034904;28;20026;-49
2023/06/28 10:06:44;;;;;;;4.82;2.75;;;20.70;90.50;;;;;;5042827;28;20036;-53
2023/06/28 10:09:37;;;;;;;6.07;3.10;;;20.70;90.50;;;;;;5040249;28;20021;-51
2023/06/28 10:12:26;;;;;;;5.63;2.83;;;20.40;90.10;;;;;;5031668;28;20033;-50
2023/06/28 10:15:19;;;;;;;6.43;2.53;;;20.20;90.10;;;;;;5030842;28;20045;-51
2023/06/28 10:18:05;;;;;;;5.07;2.97;;;20.50;90.00;;;;;;5028350;28;20403;-50
2023/06/28 10:20:51;;;;;;;5.97;3.00;;;20.60;90.00;;;;;;5029549;28;20034;-51
2023/06/28 10:23:40;;;;;;;4.32;2.63;;;20.60;89.80;;;;;;5030357;28;20032;-52
2023/06/28 10:26:28;;;;;;;7.03;3.33;;;20.70;89.50;;;;;;5033047;28;20038;-51
2023/06/28 10:29:15;;;;;;;3.45;2.78;;;21.00;88.60;;;;;;5031369;28;20025;-55
2023/06/28 10:32:02;;;;;;;5.13;2.85;;;20.90;87.70;;;;;;5030007;28;20025;-51
2023/06/28 10:34:48;;;;;;;4.82;2.60;;;20.80;87.60;;;;;;5030499;28;20021;-53
2023/06/28 10:37:34;;;;;;;6.50;3.00;;;20.60;88.20;;;;;;5032458;28;20029;-52
2023/06/28 10:40:20;;;;;;;5.53;2.80;;;20.50;90.00;;;;;;5034111;28;20065;-50
2023/06/28 10:43:19;;;;;;;6.50;2.92;;;20.70;89.80;;;;;;5033427;28;20057;-52
2023/06/28 10:46:21;;;;;;;7.85;3.78;;;20.70;88.10;;;;;;5035328;28;20033;-52
2023/06/28 10:49:07;;;;;;;4.03;2.65;;;20.80;87.60;;;;;;5030743;28;20037;-55
2023/06/28 10:51:53;;;;;;;5.25;2.90;;;21.10;86.70;;;;;;5031202;28;20030;-54
2023/06/28 10:54:39;;;;;;;7.20;2.92;;;21.00;86.20;;;;;;5028357;28;20104;-53
2023/06/28 10:57:38;;;;;;;4.88;3.03;;;21.00;86.00;;;;;;5029353;28;20540;-55
2023/06/28 11:00:45;;;;;;;6.60;2.92;;;21.20;86.80;;;;;;5030305;28;20398;-52
2023/06/28 11:03:51;;;;;;;4.00;2.75;;;21.40;85.40;;;;;;5026269;28;20026;-55
2023/06/28 11:06:41;;;;;;;4.30;2.83;;;21.20;82.10;;;;;;5030822;28;20029;-53
2023/06/28 11:09:27;;;;;;;4.55;2.95;;;20.80;84.10;;;;;;5026555;28;20108;-52
2023/06/28 11:12:13;;;;;;;5.88;2.67;;;20.90;85.30;;;;;;5028164;28;20032;-51
2023/06/28 11:15:13;;;;;;;6.80;2.70;;;21.20;84.30;;;;;;5035059;28;20088;-51
2023/06/28 11:18:16;;;;;;;6.05;2.78;;;21.30;83.80;;;;;;5029853;28;20060;-53
2023/06/28 11:21:03;;;;;;;5.20;2.75;;;21.20;82.80;;;;;;5032539;28;20033;-51
2023/06/28 11:23:54;;;;;;;4.57;2.80;;;21.20;83.90;;;;;;5029008;28;20343;-53
2023/06/28 11:26:41;;;;;;;5.63;2.55;;;21.30;84.80;;;;;;5031803;28;20690;-51
2023/06/28 11:29:27;;;;;;;5.35;2.53;;;21.40;82.80;;;;;;5032116;28;20109;-53
2023/06/28 11:32:13;;;;;;;6.40;2.90;;;21.40;84.30;;;;;;5030798;28;20505;-54
2023/06/28 11:35:00;;;;;;;4.78;2.65;;;21.40;83.90;;;;;;5035303;28;20048;-51
2023/06/28 11:37:46;;;;;;;3.75;2.50;;;21.40;83.40;;;;;;5036086;28;20517;-52
2023/06/28 11:40:33;;;;;;;4.75;2.70;;;21.30;82.60;;;;;;5030920;28;20026;-56
2023/06/28 11:43:20;;;;;;;6.57;2.45;;;21.40;83.30;;;;;;5038935;28;20029;-56
2023/06/28 11:46:07;;;;;;;4.78;2.53;;;21.50;82.50;;;;;;5043369;28;20025;-53
2023/06/28 11:48:53;;;;;;;4.00;2.53;;;21.40;82.90;;;;;;5034589;28;20030;-54
2023/06/28 11:51:41;;;;;;;4.80;2.58;;;21.50;82.50;;;;;;5034011;28;20489;-54
2023/06/28 11:54:30;;;;;;;6.45;2.90;;;21.60;83.10;;;;;;5033303;28;20021;-56
2023/06/28 11:57:16;;;;;;;4.32;2.90;;;21.70;81.90;;;;;;5032350;28;20060;-55
2023/06/28 12:00:02;;;;;;;4.35;2.78;;;21.90;82.70;;;;;;5033289;28;20043;-56
2023/06/28 12:02:52;;;;;;;4.18;2.65;;;21.60;81.60;;;;;;5028677;28;20030;-53
2023/06/28 12:05:38;;;;;;;2.95;2.67;;;21.60;81.80;;;;;;5035670;28;20405;-56
2023/06/28 12:08:24;;;;;;;3.60;2.40;;;21.90;80.30;;;;;;5032207;28;20025;-52
2023/06/28 12:11:15;;;;;;;4.57;2.35;;;21.70;81.10;;;;;;5032057;28;20032;-54
2023/06/28 12:14:04;;;;;;;7.10;2.80;;;21.90;79.50;;;;;;5030918;28;20025;-53
2023/06/28 12:16:50;;;;;;;5.80;2.85;;;21.90;80.90;;;;;;5027603;28;20032;-53
2023/06/28 12:19:39;;;;;;;6.13;2.83;;;22.10;80.90;;;;;;5036897;28;20049;-53
2023/06/28 12:22:25;;;;;;;3.83;2.70;;;22.10;81.20;;;;;;5040610;28;20490;-56
2023/06/28 12:25:12;;;;;;;7.90;2.58;;;22.10;82.70;;;;;;5036764;28;20037;-55
2023/06/28 12:28:03;;;;;;;6.18;2.85;;;22.10;80.40;;;;;;5031764;28;20033;-55
2023/06/28 12:30:55;;;;;;;4.00;2.85;;;22.00;80.60;;;;;;5032990;28;20494;-55
2023/06/28 12:33:42;;;;;;;5.82;2.72;;;22.00;81.40;;;;;;5032493;28;20394;-54
2023/06/28 12:36:27;;;;;;;6.75;3.22;;;22.10;80.90;;;;;;5034327;28;20038;-56
2023/06/28 12:39:24;;;;;;;5.68;2.80;;;22.20;81.30;;;;;;5060752;28;20023;-55
2023/06/28 12:42:20;;;;;;;4.25;2.50;;;22.10;82.30;;;;;;5034926;28;20033;-52
2023/06/28 12:45:12;;;;;;;5.68;2.72;;;22.40;79.40;;;;;;5033416;28;20067;-53
2023/06/28 12:47:58;;;;;;;4.47;2.38;;;22.40;78.80;;;;;;5033855;28;20091;-52
2023/06/28 12:50:48;;;;;;;5.28;2.70;;;22.40;79.80;;;;;;5027157;28;20098;-53
2023/06/28 12:53:34;;;;;;;4.10;2.55;;;22.70;78.10;;;;;;5033777;28;20026;-55
2023/06/28 12:56:20;;;;;;;4.75;2.65;;;23.10;78.50;;;;;;5033065;28;20557;-52
2023/06/28 12:59:06;;;;;;;3.75;2.58;;;23.10;78.40;;;;;;5035028;28;20025;-52
2023/06/28 13:01:52;;;;;;;6.55;3.20;;;22.90;78.10;;;;;;5033645;28;20490;-52
2023/06/28 13:04:38;;;;;;;3.90;2.42;;;22.70;78.60;;;;;;5021756;28;20379;-55
2023/06/28 13:07:24;;;;;;;5.82;2.65;;;23.00;78.30;;;;;;5027112;28;20029;-52
2023/06/28 13:10:10;;;;;;;3.78;2.50;;;23.10;79.30;;;;;;5029185;28;20033;-55
2023/06/28 13:12:56;;;;;;;6.10;2.97;;;23.00;76.80;;;;;;5032702;28;20041;-50
2023/06/28 13:15:43;;;;;;;3.78;2.50;;;23.10;77.30;;;;;;5034243;28;20026;-54
2023/06/28 13:18:28;;;;;;;4.18;2.60;;;23.20;77.40;;;;;;5036000;28;20037;-51
2023/06/28 13:21:16;;;;;;;4.63;2.50;;;23.10;76.40;;;;;;5036166;28;20030;-52
2023/06/28 13:24:03;;;;;;;5.72;2.85;;;23.20;77.00;;;;;;5037028;28;20095;-54
2023/06/28 13:26:51;;;;;;;4.55;2.72;;;23.30;76.80;;;;;;5038518;28;20116;-53
2023/06/28 13:29:37;;;;;;;3.75;2.63;;;23.20;76.90;;;;;;5033378;28;20038;-62
2023/06/28 13:32:23;;;;;;;5.28;2.90;;;23.20;75.30;;;;;;5031277;28;20030;-53
2023/06/28 13:35:09;;;;;;;5.43;2.92;;;23.40;77.10;;;;;;5033503;28;20037;-51
2023/06/28 13:37:55;;;;;;;4.55;2.42;;;23.40;76.70;;;;;;5031306;28;20115;-54
2023/06/28 13:40:41;;;;;;;5.35;2.60;;;23.60;76.90;;;;;;5029157;28;20125;-53
2023/06/28 13:43:27;;;;;;;4.38;2.50;;;23.90;77.00;;;;;;5031517;28;20087;-51
2023/06/28 13:46:13;;;;;;;3.70;2.45;;;23.70;76.00;;;;;;5031292;28;20029;-54
2023/06/28 13:48:59;;;;;;;5.57;2.75;;;23.60;76.70;;;;;;5012394;28;20046;-54
2023/06/28 13:51:45;;;;;;;4.05;2.40;;;24.00;76.70;;;;;;5019864;28;20109;-56
2023/06/28 13:54:31;;;;;;;4.90;3.03;;;24.00;75.30;;;;;;5028458;28;20127;-56
2023/06/28 13:57:17;;;;;;;4.05;2.47;;;23.80;75.80;;;;;;5028886;28;20057;-56
2023/06/28 14:00:04;;;;;;;5.45;2.60;;;24.00;75.10;;;;;;5030699;28;20497;-56
2023/06/28 14:02:50;;;;;;;4.20;3.05;;;24.10;75.10;;;;;;5033008;28;20108;-58
2023/06/28 14:05:36;;;;;;;6.10;2.67;;;23.90;74.60;;;;;;5032643;28;20036;-57
2023/06/28 14:08:22;;;;;;;4.43;3.05;;;23.90;74.90;;;;;;5034044;28;20022;-53
2023/06/28 14:11:08;;;;;;;3.75;2.67;;;24.00;74.80;;;;;;5039210;28;20025;-57
2023/06/28 14:13:54;;;;;;;4.88;2.85;;;24.00;74.80;;;;;;5039952;28;20033;-55
2023/06/28 14:16:40;;;;;;;5.20;2.85;;;24.10;75.50;;;;;;5028883;28;20032;-55
2023/06/28 14:19:26;;;;;;;4.28;3.10;;;24.20;75.10;;;;;;5027265;28;20036;-58
2023/06/28 14:22:12;;;;;;;4.75;2.75;;;24.30;74.10;;;;;;5034522;28;20032;-58
2023/06/28 14:24:58;;;;;;;5.80;3.20;;;24.80;74.10;;;;;;5031206;28;20159;-56
2023/06/28 14:27:44;;;;;;;5.70;2.72;;;25.40;74.30;;;;;;5058669;28;20034;-54